sensor_id;sensor_type;location;lat;lon;timestamp;temperature;humidity
8537;DHT22;4306;50.210;10.628;2023-10-31T00:02:19;12.40;99.90
8537;DHT22;4306;50.210;10.628;2023-10-31T00:04:47;12.40;99.90
8537;DHT22;4306;50.210;10.628;2023-10-31T00:07:14;12.40;99.90
8537;DHT22;4306;50.210;10.628;2023-10-31T00:09:41;12.40;99.90
8537;DHT22;4306;50.210;10.628;2023-10-31T00:12:08;12.40;99.90
8537;DHT22;4306;50.210;10.628;2023-10-31T00:14:35;12.40;99.90
8537;DHT22;4306;50.210;10.628;2023-10-31T00:17:02;12.40;99.90
8537;DHT22;4306;50.210;10.628;2023-10-31T00:19:30;12.40;99.90
8537;DHT22;4306;50.210;10.628;2023-10-31T00:21:57;12.40;99.90
8537;DHT22;4306;50.210;10.628;2023-10-31T00:24:24;12.30;99.90
8537;DHT22;4306;50.210;10.628;2023-10-31T00:26:52;12.20;99.90
8537;DHT22;4306;50.210;10.628;2023-10-31T00:29:19;12.20;99.90
8537;DHT22;4306;50.210;10.628;2023-10-31T00:31:46;12.20;99.90
8537;DHT22;4306;50.210;10.628;2023-10-31T00:34:13;12.20;99.90
8537;DHT22;4306;50.210;10.628;2023-10-31T00:36:41;12.20;99.90
8537;DHT22;4306;50.210;10.628;2023-10-31T00:39:08;12.20;99.90
8537;DHT22;4306;50.210;10.628;2023-10-31T00:41:35;12.20;99.90
8537;DHT22;4306;50.210;10.628;2023-10-31T00:44:02;12.10;99.90
8537;DHT22;4306;50.210;10.628;2023-10-31T00:46:29;12.20;99.90
8537;DHT22;4306;50.210;10.628;2023-10-31T00:48:56;12.20;99.90
8537;DHT22;4306;50.210;10.628;2023-10-31T00:51:23;12.20;99.90
8537;DHT22;4306;50.210;10.628;2023-10-31T00:53:52;12.20;99.90
8537;DHT22;4306;50.210;10.628;2023-10-31T00:56:19;12.20;99.90
8537;DHT22;4306;50.210;10.628;2023-10-31T00:58:46;12.20;99.90
8537;DHT22;4306;50.210;10.628;2023-10-31T01:01:13;12.20;99.90
8537;DHT22;4306;50.210;10.628;2023-10-31T01:03:41;12.10;99.90
8537;DHT22;4306;50.210;10.628;2023-10-31T01:06:08;12.10;99.90
8537;DHT22;4306;50.210;10.628;2023-10-31T01:08:35;12.10;99.90
8537;DHT22;4306;50.210;10.628;2023-10-31T01:11:04;12.10;99.90
8537;DHT22;4306;50.210;10.628;2023-10-31T01:13:31;12.10;99.90
8537;DHT22;4306;50.210;10.628;2023-10-31T01:15:58;12.10;99.90
8537;DHT22;4306;50.210;10.628;2023-10-31T01:18:25;12.10;99.90
8537;DHT22;4306;50.210;10.628;2023-10-31T01:20:52;12.10;99.90
8537;DHT22;4306;50.210;10.628;2023-10-31T01:23:19;12.10;99.90
8537;DHT22;4306;50.210;10.628;2023-10-31T01:25:46;12.10;99.90
8537;DHT22;4306;50.210;10.628;2023-10-31T01:28:15;12.10;99.90
8537;DHT22;4306;50.210;10.628;2023-10-31T01:30:42;12.10;99.90
8537;DHT22;4306;50.210;10.628;2023-10-31T01:33:09;12.20;99.90
8537;DHT22;4306;50.210;10.628;2023-10-31T01:35:36;12.20;99.90
8537;DHT22;4306;50.210;10.628;2023-10-31T01:38:03;12.20;99.90
8537;DHT22;4306;50.210;10.628;2023-10-31T01:40:30;12.10;99.90
8537;DHT22;4306;50.210;10.628;2023-10-31T01:42:57;12.10;99.90
8537;DHT22;4306;50.210;10.628;2023-10-31T01:45:25;12.10;99.90
8537;DHT22;4306;50.210;10.628;2023-10-31T01:47:52;12.10;99.90
8537;DHT22;4306;50.210;10.628;2023-10-31T01:50:20;12.10;99.90
8537;DHT22;4306;50.210;10.628;2023-10-31T01:52:47;12.10;99.90
8537;DHT22;4306;50.210;10.628;2023-10-31T01:55:15;12.10;99.90
8537;DHT22;4306;50.210;10.628;2023-10-31T01:57:44;12.00;99.90
8537;DHT22;4306;50.210;10.628;2023-10-31T02:00:13;12.00;99.90
8537;DHT22;4306;50.210;10.628;2023-10-31T02:02:42;12.00;99.90
8537;DHT22;4306;50.210;10.628;2023-10-31T02:05:10;12.00;99.90
8537;DHT22;4306;50.210;10.628;2023-10-31T02:07:37;12.00;99.90
8537;DHT22;4306;50.210;10.628;2023-10-31T02:10:04;12.00;99.90
8537;DHT22;4306;50.210;10.628;2023-10-31T02:12:33;11.90;99.90
8537;DHT22;4306;50.210;10.628;2023-10-31T02:15:00;11.90;99.90
8537;DHT22;4306;50.210;10.628;2023-10-31T02:17:27;11.90;99.90
8537;DHT22;4306;50.210;10.628;2023-10-31T02:19:56;11.90;99.90
8537;DHT22;4306;50.210;10.628;2023-10-31T02:22:24;11.90;99.90
8537;DHT22;4306;50.210;10.628;2023-10-31T02:24:51;11.80;99.90
8537;DHT22;4306;50.210;10.628;2023-10-31T02:27:18;11.80;99.90
8537;DHT22;4306;50.210;10.628;2023-10-31T02:29:45;11.80;99.90
8537;DHT22;4306;50.210;10.628;2023-10-31T02:32:12;11.80;99.90
8537;DHT22;4306;50.210;10.628;2023-10-31T02:34:39;11.80;99.90
8537;DHT22;4306;50.210;10.628;2023-10-31T02:37:07;11.80;99.90
8537;DHT22;4306;50.210;10.628;2023-10-31T02:39:35;11.70;99.90
8537;DHT22;4306;50.210;10.628;2023-10-31T02:42:02;11.70;99.90
8537;DHT22;4306;50.210;10.628;2023-10-31T02:44:29;11.60;99.90
8537;DHT22;4306;50.210;10.628;2023-10-31T02:46:56;11.50;99.90
8537;DHT22;4306;50.210;10.628;2023-10-31T02:49:23;11.60;99.90
8537;DHT22;4306;50.210;10.628;2023-10-31T02:51:50;11.50;99.90
8537;DHT22;4306;50.210;10.628;2023-10-31T02:54:17;11.50;99.90
8537;DHT22;4306;50.210;10.628;2023-10-31T02:56:45;11.60;99.90
8537;DHT22;4306;50.210;10.628;2023-10-31T02:59:12;11.60;99.90
8537;DHT22;4306;50.210;10.628;2023-10-31T03:01:39;11.50;99.90
8537;DHT22;4306;50.210;10.628;2023-10-31T03:04:06;11.50;99.90
8537;DHT22;4306;50.210;10.628;2023-10-31T03:06:33;11.40;99.90
8537;DHT22;4306;50.210;10.628;2023-10-31T03:09:00;11.50;99.90
8537;DHT22;4306;50.210;10.628;2023-10-31T03:11:27;11.50;99.90
8537;DHT22;4306;50.210;10.628;2023-10-31T03:13:56;11.50;99.90
8537;DHT22;4306;50.210;10.628;2023-10-31T03:16:23;11.40;99.90
8537;DHT22;4306;50.210;10.628;2023-10-31T03:18:50;11.40;99.90
8537;DHT22;4306;50.210;10.628;2023-10-31T03:21:17;11.40;99.90
8537;DHT22;4306;50.210;10.628;2023-10-31T03:23:48;11.40;99.90
8537;DHT22;4306;50.210;10.628;2023-10-31T03:26:15;11.30;99.90
8537;DHT22;4306;50.210;10.628;2023-10-31T03:28:43;11.30;99.90
8537;DHT22;4306;50.210;10.628;2023-10-31T03:31:12;11.30;99.90
8537;DHT22;4306;50.210;10.628;2023-10-31T03:33:40;11.30;99.90
8537;DHT22;4306;50.210;10.628;2023-10-31T03:36:08;11.30;99.90
8537;DHT22;4306;50.210;10.628;2023-10-31T03:38:35;11.30;99.90
8537;DHT22;4306;50.210;10.628;2023-10-31T03:41:03;11.20;99.90
8537;DHT22;4306;50.210;10.628;2023-10-31T03:43:30;11.20;99.90
8537;DHT22;4306;50.210;10.628;2023-10-31T03:45:57;11.20;99.90
8537;DHT22;4306;50.210;10.628;2023-10-31T03:48:25;11.20;99.90
8537;DHT22;4306;50.210;10.628;2023-10-31T03:50:52;11.10;99.90
8537;DHT22;4306;50.210;10.628;2023-10-31T03:53:20;11.10;99.90
8537;DHT22;4306;50.210;10.628;2023-10-31T03:55:47;11.10;99.90
8537;DHT22;4306;50.210;10.628;2023-10-31T03:58:14;11.10;99.90
8537;DHT22;4306;50.210;10.628;2023-10-31T04:00:41;11.00;99.90
8537;DHT22;4306;50.210;10.628;2023-10-31T04:03:08;10.90;99.90
8537;DHT22;4306;50.210;10.628;2023-10-31T04:05:36;11.00;99.90
8537;DHT22;4306;50.210;10.628;2023-10-31T04:08:03;10.90;99.90
8537;DHT22;4306;50.210;10.628;2023-10-31T04:10:30;10.90;99.90
8537;DHT22;4306;50.210;10.628;2023-10-31T04:12:57;10.90;99.90
8537;DHT22;4306;50.210;10.628;2023-10-31T04:15:24;10.80;99.90
8537;DHT22;4306;50.210;10.628;2023-10-31T04:17:51;10.80;99.90
8537;DHT22;4306;50.210;10.628;2023-10-31T04:20:18;10.90;99.90
8537;DHT22;4306;50.210;10.628;2023-10-31T04:22:47;10.80;99.90
8537;DHT22;4306;50.210;10.628;2023-10-31T04:25:14;10.80;99.90
8537;DHT22;4306;50.210;10.628;2023-10-31T04:27:41;10.90;99.90
8537;DHT22;4306;50.210;10.628;2023-10-31T04:30:09;10.80;99.90
8537;DHT22;4306;50.210;10.628;2023-10-31T04:32:36;10.80;99.90
8537;DHT22;4306;50.210;10.628;2023-10-31T04:35:04;10.80;99.90
8537;DHT22;4306;50.210;10.628;2023-10-31T04:37:31;10.70;99.90
8537;DHT22;4306;50.210;10.628;2023-10-31T04:39:59;10.70;99.90
8537;DHT22;4306;50.210;10.628;2023-10-31T04:42:26;10.60;99.90
8537;DHT22;4306;50.210;10.628;2023-10-31T04:44:53;10.60;99.90
8537;DHT22;4306;50.210;10.628;2023-10-31T04:47:20;10.60;99.90
8537;DHT22;4306;50.210;10.628;2023-10-31T04:49:47;10.60;99.90
8537;DHT22;4306;50.210;10.628;2023-10-31T04:52:14;10.60;99.90
8537;DHT22;4306;50.210;10.628;2023-10-31T04:54:41;10.60;99.90
8537;DHT22;4306;50.210;10.628;2023-10-31T04:57:09;10.60;99.90
8537;DHT22;4306;50.210;10.628;2023-10-31T04:59:36;10.60;99.90
8537;DHT22;4306;50.210;10.628;2023-10-31T05:02:04;10.60;99.90
8537;DHT22;4306;50.210;10.628;2023-10-31T05:04:31;10.50;99.90
8537;DHT22;4306;50.210;10.628;2023-10-31T05:06:58;10.60;99.90
8537;DHT22;4306;50.210;10.628;2023-10-31T05:09:25;10.60;99.90
8537;DHT22;4306;50.210;10.628;2023-10-31T05:11:52;10.70;99.90
8537;DHT22;4306;50.210;10.628;2023-10-31T05:14:21;10.50;99.90
8537;DHT22;4306;50.210;10.628;2023-10-31T05:16:48;10.50;99.90
8537;DHT22;4306;50.210;10.628;2023-10-31T05:19:15;10.50;99.90
8537;DHT22;4306;50.210;10.628;2023-10-31T05:21:42;10.40;99.90
8537;DHT22;4306;50.210;10.628;2023-10-31T05:24:09;10.40;99.90
8537;DHT22;4306;50.210;10.628;2023-10-31T05:26:36;10.30;99.90
8537;DHT22;4306;50.210;10.628;2023-10-31T05:29:03;10.30;99.90
8537;DHT22;4306;50.210;10.628;2023-10-31T05:31:32;10.30;99.90
8537;DHT22;4306;50.210;10.628;2023-10-31T05:33:59;10.30;99.90
8537;DHT22;4306;50.210;10.628;2023-10-31T05:36:26;10.20;99.90
8537;DHT22;4306;50.210;10.628;2023-10-31T05:38:53;10.30;99.90
8537;DHT22;4306;50.210;10.628;2023-10-31T05:41:20;10.20;99.90
8537;DHT22;4306;50.210;10.628;2023-10-31T05:43:48;10.10;99.90
8537;DHT22;4306;50.210;10.628;2023-10-31T05:46:14;10.20;99.90
8537;DHT22;4306;50.210;10.628;2023-10-31T05:48:45;10.10;99.90
8537;DHT22;4306;50.210;10.628;2023-10-31T05:51:12;10.20;99.90
8537;DHT22;4306;50.210;10.628;2023-10-31T05:53:41;10.10;99.90
8537;DHT22;4306;50.210;10.628;2023-10-31T05:56:09;10.10;99.90
8537;DHT22;4306;50.210;10.628;2023-10-31T05:58:37;10.10;99.90
8537;DHT22;4306;50.210;10.628;2023-10-31T06:01:05;10.20;99.90
8537;DHT22;4306;50.210;10.628;2023-10-31T06:03:32;10.20;99.90
8537;DHT22;4306;50.210;10.628;2023-10-31T06:06:01;10.20;99.90
8537;DHT22;4306;50.210;10.628;2023-10-31T06:08:28;10.10;99.90
8537;DHT22;4306;50.210;10.628;2023-10-31T06:10:55;10.10;99.90
8537;DHT22;4306;50.210;10.628;2023-10-31T06:13:23;10.10;99.90
8537;DHT22;4306;50.210;10.628;2023-10-31T06:15:51;10.10;99.90
8537;DHT22;4306;50.210;10.628;2023-10-31T06:18:18;10.10;99.90
8537;DHT22;4306;50.210;10.628;2023-10-31T06:20:45;10.10;99.90
8537;DHT22;4306;50.210;10.628;2023-10-31T06:23:13;10.00;99.90
8537;DHT22;4306;50.210;10.628;2023-10-31T06:25:40;10.00;99.90
8537;DHT22;4306;50.210;10.628;2023-10-31T06:28:07;10.00;99.90
8537;DHT22;4306;50.210;10.628;2023-10-31T06:30:34;10.10;99.90
8537;DHT22;4306;50.210;10.628;2023-10-31T06:33:01;10.10;99.90
8537;DHT22;4306;50.210;10.628;2023-10-31T06:35:28;10.10;99.90
8537;DHT22;4306;50.210;10.628;2023-10-31T06:37:56;10.10;99.90
8537;DHT22;4306;50.210;10.628;2023-10-31T06:40:25;10.10;99.90
8537;DHT22;4306;50.210;10.628;2023-10-31T06:42:52;10.10;99.90
8537;DHT22;4306;50.210;10.628;2023-10-31T06:45:19;10.00;99.90
8537;DHT22;4306;50.210;10.628;2023-10-31T06:47:46;10.10;99.90
8537;DHT22;4306;50.210;10.628;2023-10-31T06:50:13;10.10;99.90
8537;DHT22;4306;50.210;10.628;2023-10-31T06:52:40;10.10;99.90
8537;DHT22;4306;50.210;10.628;2023-10-31T06:55:08;10.10;99.90
8537;DHT22;4306;50.210;10.628;2023-10-31T06:57:36;10.20;99.90
8537;DHT22;4306;50.210;10.628;2023-10-31T07:00:05;10.10;99.90
8537;DHT22;4306;50.210;10.628;2023-10-31T07:02:34;10.20;99.90
8537;DHT22;4306;50.210;10.628;2023-10-31T07:05:01;10.20;99.90
8537;DHT22;4306;50.210;10.628;2023-10-31T07:07:29;10.20;99.90
8537;DHT22;4306;50.210;10.628;2023-10-31T07:09:56;10.20;99.90
8537;DHT22;4306;50.210;10.628;2023-10-31T07:12:23;10.10;99.90
8537;DHT22;4306;50.210;10.628;2023-10-31T07:14:52;10.10;99.90
8537;DHT22;4306;50.210;10.628;2023-10-31T07:17:18;10.10;99.90
8537;DHT22;4306;50.210;10.628;2023-10-31T07:19:46;10.10;99.90
8537;DHT22;4306;50.210;10.628;2023-10-31T07:22:13;10.10;99.90
8537;DHT22;4306;50.210;10.628;2023-10-31T07:24:40;10.10;99.90
8537;DHT22;4306;50.210;10.628;2023-10-31T07:27:08;10.10;99.90
8537;DHT22;4306;50.210;10.628;2023-10-31T07:29:36;10.10;99.90
8537;DHT22;4306;50.210;10.628;2023-10-31T07:32:06;10.10;99.90
8537;DHT22;4306;50.210;10.628;2023-10-31T07:34:33;10.10;99.90
8537;DHT22;4306;50.210;10.628;2023-10-31T07:37:00;10.10;99.90
8537;DHT22;4306;50.210;10.628;2023-10-31T07:39:28;10.10;99.90
8537;DHT22;4306;50.210;10.628;2023-10-31T07:41:55;10.10;99.90
8537;DHT22;4306;50.210;10.628;2023-10-31T07:44:22;10.20;99.90
8537;DHT22;4306;50.210;10.628;2023-10-31T07:46:49;10.30;99.90
8537;DHT22;4306;50.210;10.628;2023-10-31T07:49:17;10.30;99.90
8537;DHT22;4306;50.210;10.628;2023-10-31T07:51:44;10.40;99.90
8537;DHT22;4306;50.210;10.628;2023-10-31T07:54:13;10.40;99.90
8537;DHT22;4306;50.210;10.628;2023-10-31T07:56:41;10.50;99.90
8537;DHT22;4306;50.210;10.628;2023-10-31T07:59:09;10.40;99.90
8537;DHT22;4306;50.210;10.628;2023-10-31T08:01:36;10.40;99.90
8537;DHT22;4306;50.210;10.628;2023-10-31T08:04:04;10.50;99.90
8537;DHT22;4306;50.210;10.628;2023-10-31T08:06:33;10.50;99.90
8537;DHT22;4306;50.210;10.628;2023-10-31T08:09:00;10.50;99.90
8537;DHT22;4306;50.210;10.628;2023-10-31T08:11:27;10.50;99.90
8537;DHT22;4306;50.210;10.628;2023-10-31T08:13:54;10.50;99.90
8537;DHT22;4306;50.210;10.628;2023-10-31T08:16:21;10.50;99.90
8537;DHT22;4306;50.210;10.628;2023-10-31T08:18:49;10.50;99.90
8537;DHT22;4306;50.210;10.628;2023-10-31T08:21:16;10.50;99.90
8537;DHT22;4306;50.210;10.628;2023-10-31T08:23:44;10.50;99.90
8537;DHT22;4306;50.210;10.628;2023-10-31T08:26:12;10.40;99.90
8537;DHT22;4306;50.210;10.628;2023-10-31T08:28:39;10.50;99.90
8537;DHT22;4306;50.210;10.628;2023-10-31T08:31:06;10.50;99.90
8537;DHT22;4306;50.210;10.628;2023-10-31T08:36:59;10.40;99.90
8537;DHT22;4306;50.210;10.628;2023-10-31T08:39:28;10.50;99.90
8537;DHT22;4306;50.210;10.628;2023-10-31T08:41:56;10.50;99.90
8537;DHT22;4306;50.210;10.628;2023-10-31T08:44:23;10.50;99.90
8537;DHT22;4306;50.210;10.628;2023-10-31T08:46:51;10.50;99.90
8537;DHT22;4306;50.210;10.628;2023-10-31T08:49:18;10.50;99.90
8537;DHT22;4306;50.210;10.628;2023-10-31T08:51:45;10.60;99.90
8537;DHT22;4306;50.210;10.628;2023-10-31T08:54:12;10.60;99.90
8537;DHT22;4306;50.210;10.628;2023-10-31T08:56:41;10.70;99.90
8537;DHT22;4306;50.210;10.628;2023-10-31T08:59:08;10.70;99.90
8537;DHT22;4306;50.210;10.628;2023-10-31T09:01:34;10.70;99.90
8537;DHT22;4306;50.210;10.628;2023-10-31T09:04:02;10.70;99.90
8537;DHT22;4306;50.210;10.628;2023-10-31T09:06:29;10.70;99.90
8537;DHT22;4306;50.210;10.628;2023-10-31T09:08:56;10.70;99.90
8537;DHT22;4306;50.210;10.628;2023-10-31T09:11:23;10.70;99.90
8537;DHT22;4306;50.210;10.628;2023-10-31T09:13:51;10.70;99.90
8537;DHT22;4306;50.210;10.628;2023-10-31T09:16:18;10.70;99.90
8537;DHT22;4306;50.210;10.628;2023-10-31T09:18:45;10.70;99.90
8537;DHT22;4306;50.210;10.628;2023-10-31T09:21:12;10.80;99.90
8537;DHT22;4306;50.210;10.628;2023-10-31T09:23:39;10.80;99.90
8537;DHT22;4306;50.210;10.628;2023-10-31T09:26:06;10.80;99.90
8537;DHT22;4306;50.210;10.628;2023-10-31T09:28:33;10.80;99.90
8537;DHT22;4306;50.210;10.628;2023-10-31T09:31:01;10.70;99.90
8537;DHT22;4306;50.210;10.628;2023-10-31T09:33:28;10.80;99.90
8537;DHT22;4306;50.210;10.628;2023-10-31T09:35:55;10.80;99.90
8537;DHT22;4306;50.210;10.628;2023-10-31T09:38:22;10.80;99.90
8537;DHT22;4306;50.210;10.628;2023-10-31T09:40:49;10.80;99.90
8537;DHT22;4306;50.210;10.628;2023-10-31T09:43:17;10.90;99.90
8537;DHT22;4306;50.210;10.628;2023-10-31T09:45:44;10.80;99.90
8537;DHT22;4306;50.210;10.628;2023-10-31T09:48:13;10.90;99.90
8537;DHT22;4306;50.210;10.628;2023-10-31T09:50:41;11.00;99.90
8537;DHT22;4306;50.210;10.628;2023-10-31T09:53:08;11.10;99.90
8537;DHT22;4306;50.210;10.628;2023-10-31T09:55:36;11.00;99.90
8537;DHT22;4306;50.210;10.628;2023-10-31T09:58:04;11.10;99.90
8537;DHT22;4306;50.210;10.628;2023-10-31T10:00:31;11.10;99.90
8537;DHT22;4306;50.210;10.628;2023-10-31T10:02:59;11.10;99.90
8537;DHT22;4306;50.210;10.628;2023-10-31T10:05:28;11.10;99.90
8537;DHT22;4306;50.210;10.628;2023-10-31T10:07:57;11.20;99.90
8537;DHT22;4306;50.210;10.628;2023-10-31T10:10:24;11.20;99.90
8537;DHT22;4306;50.210;10.628;2023-10-31T10:12:51;11.20;99.90
8537;DHT22;4306;50.210;10.628;2023-10-31T10:15:19;11.30;99.90
8537;DHT22;4306;50.210;10.628;2023-10-31T10:17:49;11.30;99.90
8537;DHT22;4306;50.210;10.628;2023-10-31T10:20:17;11.20;99.90
8537;DHT22;4306;50.210;10.628;2023-10-31T10:22:46;11.20;99.90
8537;DHT22;4306;50.210;10.628;2023-10-31T10:25:15;11.30;99.90
8537;DHT22;4306;50.210;10.628;2023-10-31T10:27:43;11.30;99.90
8537;DHT22;4306;50.210;10.628;2023-10-31T10:30:12;11.20;99.90
8537;DHT22;4306;50.210;10.628;2023-10-31T10:32:39;11.30;99.90
8537;DHT22;4306;50.210;10.628;2023-10-31T10:35:07;11.30;99.90
8537;DHT22;4306;50.210;10.628;2023-10-31T10:37:37;11.30;99.90
8537;DHT22;4306;50.210;10.628;2023-10-31T10:40:10;11.30;99.90
8537;DHT22;4306;50.210;10.628;2023-10-31T10:42:46;11.10;99.90
8537;DHT22;4306;50.210;10.628;2023-10-31T10:45:14;11.10;99.90
8537;DHT22;4306;50.210;10.628;2023-10-31T10:47:46;11.00;99.90
8537;DHT22;4306;50.210;10.628;2023-10-31T10:50:13;11.00;99.90
8537;DHT22;4306;50.210;10.628;2023-10-31T10:52:44;11.10;99.90
8537;DHT22;4306;50.210;10.628;2023-10-31T10:55:18;11.00;99.90
8537;DHT22;4306;50.210;10.628;2023-10-31T10:57:54;11.00;99.90
8537;DHT22;4306;50.210;10.628;2023-10-31T11:00:23;11.10;99.90
8537;DHT22;4306;50.210;10.628;2023-10-31T11:02:51;11.00;99.90
8537;DHT22;4306;50.210;10.628;2023-10-31T11:05:19;11.00;99.90
8537;DHT22;4306;50.210;10.628;2023-10-31T11:07:47;11.10;99.90
8537;DHT22;4306;50.210;10.628;2023-10-31T11:10:17;11.20;99.90
8537;DHT22;4306;50.210;10.628;2023-10-31T11:12:44;11.20;99.90
8537;DHT22;4306;50.210;10.628;2023-10-31T11:15:13;11.20;99.90
8537;DHT22;4306;50.210;10.628;2023-10-31T11:17:42;11.30;99.90
8537;DHT22;4306;50.210;10.628;2023-10-31T11:20:11;11.30;99.90
8537;DHT22;4306;50.210;10.628;2023-10-31T11:22:40;11.30;99.90
8537;DHT22;4306;50.210;10.628;2023-10-31T11:25:09;11.30;99.90
8537;DHT22;4306;50.210;10.628;2023-10-31T11:27:37;11.50;99.90
8537;DHT22;4306;50.210;10.628;2023-10-31T11:30:07;11.50;99.90
8537;DHT22;4306;50.210;10.628;2023-10-31T11:32:34;11.60;99.90
8537;DHT22;4306;50.210;10.628;2023-10-31T11:35:01;11.70;99.90
8537;DHT22;4306;50.210;10.628;2023-10-31T11:37:32;11.80;99.90
8537;DHT22;4306;50.210;10.628;2023-10-31T11:40:19;11.90;99.90
8537;DHT22;4306;50.210;10.628;2023-10-31T11:42:49;11.80;99.90
8537;DHT22;4306;50.210;10.628;2023-10-31T11:45:33;11.90;99.90
8537;DHT22;4306;50.210;10.628;2023-10-31T11:48:00;11.90;99.90
8537;DHT22;4306;50.210;10.628;2023-10-31T11:50:27;12.10;99.90
8537;DHT22;4306;50.210;10.628;2023-10-31T11:53:02;12.10;99.90
8537;DHT22;4306;50.210;10.628;2023-10-31T11:55:31;12.20;99.90
8537;DHT22;4306;50.210;10.628;2023-10-31T11:58:15;12.10;99.90
8537;DHT22;4306;50.210;10.628;2023-10-31T12:00:42;12.00;99.90
8537;DHT22;4306;50.210;10.628;2023-10-31T12:03:10;12.00;99.90
8537;DHT22;4306;50.210;10.628;2023-10-31T12:05:37;11.90;99.90
8537;DHT22;4306;50.210;10.628;2023-10-31T12:08:04;12.00;99.90
8537;DHT22;4306;50.210;10.628;2023-10-31T12:10:31;12.10;99.90
8537;DHT22;4306;50.210;10.628;2023-10-31T12:13:00;12.00;99.90
8537;DHT22;4306;50.210;10.628;2023-10-31T12:15:27;12.00;99.90
8537;DHT22;4306;50.210;10.628;2023-10-31T12:17:58;12.00;99.90
8537;DHT22;4306;50.210;10.628;2023-10-31T12:20:25;12.00;99.90
8537;DHT22;4306;50.210;10.628;2023-10-31T12:23:02;12.00;99.90
8537;DHT22;4306;50.210;10.628;2023-10-31T12:25:29;12.00;99.90
8537;DHT22;4306;50.210;10.628;2023-10-31T12:28:00;11.90;99.90
8537;DHT22;4306;50.210;10.628;2023-10-31T12:30:27;11.90;99.90
8537;DHT22;4306;50.210;10.628;2023-10-31T12:32:54;11.90;99.90
8537;DHT22;4306;50.210;10.628;2023-10-31T12:35:23;11.90;99.90
8537;DHT22;4306;50.210;10.628;2023-10-31T12:37:51;11.90;99.90
8537;DHT22;4306;50.210;10.628;2023-10-31T12:40:19;12.00;99.90
8537;DHT22;4306;50.210;10.628;2023-10-31T12:42:48;11.90;99.90
8537;DHT22;4306;50.210;10.628;2023-10-31T12:45:18;11.80;99.90
8537;DHT22;4306;50.210;10.628;2023-10-31T12:47:45;11.80;99.90
8537;DHT22;4306;50.210;10.628;2023-10-31T12:50:13;11.70;99.90
8537;DHT22;4306;50.210;10.628;2023-10-31T12:52:48;11.70;99.90
8537;DHT22;4306;50.210;10.628;2023-10-31T12:55:17;11.60;99.90
8537;DHT22;4306;50.210;10.628;2023-10-31T12:57:44;11.60;99.90
8537;DHT22;4306;50.210;10.628;2023-10-31T13:00:14;11.70;99.90
8537;DHT22;4306;50.210;10.628;2023-10-31T13:02:48;11.60;99.90
8537;DHT22;4306;50.210;10.628;2023-10-31T13:05:19;11.60;99.90
8537;DHT22;4306;50.210;10.628;2023-10-31T13:07:50;11.60;99.90
8537;DHT22;4306;50.210;10.628;2023-10-31T13:10:18;11.50;99.90
8537;DHT22;4306;50.210;10.628;2023-10-31T13:12:45;11.50;99.90
8537;DHT22;4306;50.210;10.628;2023-10-31T13:15:13;11.60;99.90
8537;DHT22;4306;50.210;10.628;2023-10-31T13:17:41;11.60;99.90
8537;DHT22;4306;50.210;10.628;2023-10-31T13:20:11;11.60;99.90
8537;DHT22;4306;50.210;10.628;2023-10-31T13:22:38;11.50;99.90
8537;DHT22;4306;50.210;10.628;2023-10-31T13:25:07;11.60;99.90
8537;DHT22;4306;50.210;10.628;2023-10-31T13:27:36;11.50;99.90
8537;DHT22;4306;50.210;10.628;2023-10-31T13:30:05;11.60;99.90
8537;DHT22;4306;50.210;10.628;2023-10-31T13:32:33;11.60;99.90
8537;DHT22;4306;50.210;10.628;2023-10-31T13:35:00;11.60;99.90
8537;DHT22;4306;50.210;10.628;2023-10-31T13:37:29;11.60;99.90
8537;DHT22;4306;50.210;10.628;2023-10-31T13:39:56;11.60;99.90
8537;DHT22;4306;50.210;10.628;2023-10-31T13:42:23;11.60;99.90
8537;DHT22;4306;50.210;10.628;2023-10-31T13:44:51;11.60;99.90
8537;DHT22;4306;50.210;10.628;2023-10-31T13:47:18;11.60;99.90
8537;DHT22;4306;50.210;10.628;2023-10-31T13:49:45;11.60;99.90
8537;DHT22;4306;50.210;10.628;2023-10-31T13:52:12;11.60;99.90
8537;DHT22;4306;50.210;10.628;2023-10-31T13:54:40;11.60;99.90
8537;DHT22;4306;50.210;10.628;2023-10-31T13:57:07;11.60;99.90
8537;DHT22;4306;50.210;10.628;2023-10-31T13:59:34;11.60;99.90
8537;DHT22;4306;50.210;10.628;2023-10-31T14:02:01;11.60;99.90
8537;DHT22;4306;50.210;10.628;2023-10-31T14:04:28;11.50;99.90
8537;DHT22;4306;50.210;10.628;2023-10-31T14:06:55;11.50;99.90
8537;DHT22;4306;50.210;10.628;2023-10-31T14:09:22;11.50;99.90
8537;DHT22;4306;50.210;10.628;2023-10-31T14:11:50;11.40;99.90
8537;DHT22;4306;50.210;10.628;2023-10-31T14:14:17;11.50;99.90
8537;DHT22;4306;50.210;10.628;2023-10-31T14:16:46;11.60;99.90
8537;DHT22;4306;50.210;10.628;2023-10-31T14:19:15;11.50;99.90
8537;DHT22;4306;50.210;10.628;2023-10-31T14:21:43;11.50;99.90
8537;DHT22;4306;50.210;10.628;2023-10-31T14:24:10;11.50;99.90
8537;DHT22;4306;50.210;10.628;2023-10-31T14:26:37;11.50;99.90
8537;DHT22;4306;50.210;10.628;2023-10-31T14:29:07;11.60;99.90
8537;DHT22;4306;50.210;10.628;2023-10-31T14:31:38;11.50;99.90
8537;DHT22;4306;50.210;10.628;2023-10-31T14:34:06;11.50;99.90
8537;DHT22;4306;50.210;10.628;2023-10-31T14:36:33;11.50;99.90
8537;DHT22;4306;50.210;10.628;2023-10-31T14:39:00;11.50;99.90
8537;DHT22;4306;50.210;10.628;2023-10-31T14:41:27;11.50;99.90
8537;DHT22;4306;50.210;10.628;2023-10-31T14:43:59;11.40;99.90
8537;DHT22;4306;50.210;10.628;2023-10-31T14:46:28;11.40;99.90
8537;DHT22;4306;50.210;10.628;2023-10-31T14:48:55;11.40;99.90
8537;DHT22;4306;50.210;10.628;2023-10-31T14:51:21;11.40;99.90
8537;DHT22;4306;50.210;10.628;2023-10-31T14:53:49;11.40;99.90
8537;DHT22;4306;50.210;10.628;2023-10-31T14:56:16;11.40;99.90
8537;DHT22;4306;50.210;10.628;2023-10-31T14:58:42;11.40;99.90
8537;DHT22;4306;50.210;10.628;2023-10-31T15:01:09;11.40;99.90
8537;DHT22;4306;50.210;10.628;2023-10-31T15:03:38;11.40;99.90
8537;DHT22;4306;50.210;10.628;2023-10-31T15:06:05;11.40;99.90
8537;DHT22;4306;50.210;10.628;2023-10-31T15:08:33;11.40;99.90
8537;DHT22;4306;50.210;10.628;2023-10-31T15:11:00;11.40;99.90
8537;DHT22;4306;50.210;10.628;2023-10-31T15:13:27;11.40;99.90
8537;DHT22;4306;50.210;10.628;2023-10-31T15:15:54;11.40;99.90
8537;DHT22;4306;50.210;10.628;2023-10-31T15:18:21;11.40;99.90
8537;DHT22;4306;50.210;10.628;2023-10-31T15:20:49;11.40;99.90
8537;DHT22;4306;50.210;10.628;2023-10-31T15:23:16;11.40;99.90
8537;DHT22;4306;50.210;10.628;2023-10-31T15:25:43;11.30;99.90
8537;DHT22;4306;50.210;10.628;2023-10-31T15:28:10;11.40;99.90
8537;DHT22;4306;50.210;10.628;2023-10-31T15:30:37;11.40;99.90
8537;DHT22;4306;50.210;10.628;2023-10-31T15:33:04;11.40;99.90
8537;DHT22;4306;50.210;10.628;2023-10-31T15:35:31;11.40;99.90
8537;DHT22;4306;50.210;10.628;2023-10-31T15:38:00;11.40;99.90
8537;DHT22;4306;50.210;10.628;2023-10-31T15:40:27;11.40;99.90
8537;DHT22;4306;50.210;10.628;2023-10-31T15:42:54;11.30;99.90
8537;DHT22;4306;50.210;10.628;2023-10-31T15:45:21;11.30;99.90
8537;DHT22;4306;50.210;10.628;2023-10-31T15:47:48;11.30;99.90
8537;DHT22;4306;50.210;10.628;2023-10-31T15:50:15;11.30;99.90
8537;DHT22;4306;50.210;10.628;2023-10-31T15:52:43;11.30;99.90